sensor_id;sensor_type;location;lat;lon;timestamp;pressure;altitude;pressure_sealevel;temperature;humidity
71948;BME280;59820;55.076;38.766;2022-08-01T00:01:14;100162.50;;;13.68;79.64
71948;BME280;59820;55.076;38.766;2022-08-01T00:03:39;100162.41;;;13.69;79.50
71948;BME280;59820;55.076;38.766;2022-08-01T00:06:05;100166.09;;;13.67;78.86
71948;BME280;59820;55.076;38.766;2022-08-01T00:08:31;100138.75;;;13.52;79.06
71948;BME280;59820;55.076;38.766;2022-08-01T00:10:57;100142.63;;;13.61;78.60
71948;BME280;59820;55.076;38.766;2022-08-01T00:13:23;100153.34;;;13.59;78.68
71948;BME280;59820;55.076;38.766;2022-08-01T00:15:50;100149.28;;;13.53;78.49
71948;BME280;59820;55.076;38.766;2022-08-01T00:18:15;100150.88;;;13.56;77.52
71948;BME280;59820;55.076;38.766;2022-08-01T00:20:41;100134.59;;;13.48;77.61
71948;BME280;59820;55.076;38.766;2022-08-01T00:23:07;100141.41;;;13.52;78.37
71948;BME280;59820;55.076;38.766;2022-08-01T00:25:33;100146.53;;;13.55;78.80
71948;BME280;59820;55.076;38.766;2022-08-01T00:28:00;100141.22;;;13.55;79.58
71948;BME280;59820;55.076;38.766;2022-08-01T00:30:26;100142.94;;;13.56;80.08
71948;BME280;59820;55.076;38.766;2022-08-01T00:32:51;100128.53;;;13.46;79.84
71948;BME280;59820;55.076;38.766;2022-08-01T00:35:17;100127.84;;;13.42;79.58
71948;BME280;59820;55.076;38.766;2022-08-01T00:37:43;100144.72;;;13.55;79.41
71948;BME280;59820;55.076;38.766;2022-08-01T00:40:09;100146.41;;;13.56;79.62
71948;BME280;59820;55.076;38.766;2022-08-01T00:42:37;100146.63;;;13.53;79.74
71948;BME280;59820;55.076;38.766;2022-08-01T00:45:03;100135.16;;;13.38;80.15
71948;BME280;59820;55.076;38.766;2022-08-01T00:47:30;100144.84;;;13.39;80.47
71948;BME280;59820;55.076;38.766;2022-08-01T00:49:55;100132.38;;;13.26;79.98
71948;BME280;59820;55.076;38.766;2022-08-01T00:52:21;100148.66;;;13.34;80.70
71948;BME280;59820;55.076;38.766;2022-08-01T00:54:48;100154.16;;;13.31;80.75
71948;BME280;59820;55.076;38.766;2022-08-01T00:57:14;100137.22;;;13.19;81.09
71948;BME280;59820;55.076;38.766;2022-08-01T00:59:40;100157.00;;;13.28;80.96
71948;BME280;59820;55.076;38.766;2022-08-01T01:02:06;100153.56;;;13.26;81.25
71948;BME280;59820;55.076;38.766;2022-08-01T01:04:32;100149.41;;;13.21;81.35
71948;BME280;59820;55.076;38.766;2022-08-01T01:15:06;100162.50;;;13.24;81.66
71948;BME280;59820;55.076;38.766;2022-08-01T01:17:40;100141.44;;;13.21;80.86
71948;BME280;59820;55.076;38.766;2022-08-01T01:20:12;100145.47;;;13.29;81.21
71948;BME280;59820;55.076;38.766;2022-08-01T01:28:27;100140.81;;;13.18;81.23
71948;BME280;59820;55.076;38.766;2022-08-01T01:30:57;100150.28;;;13.22;80.99
71948;BME280;59820;55.076;38.766;2022-08-01T01:33:26;100142.44;;;13.20;81.15
71948;BME280;59820;55.076;38.766;2022-08-01T01:36:03;100145.16;;;13.19;81.50
71948;BME280;59820;55.076;38.766;2022-08-01T01:38:34;100133.06;;;13.15;81.29
71948;BME280;59820;55.076;38.766;2022-08-01T01:41:02;100139.28;;;13.14;81.68
71948;BME280;59820;55.076;38.766;2022-08-01T01:43:32;100138.25;;;13.16;81.96
71948;BME280;59820;55.076;38.766;2022-08-01T01:46:00;100140.91;;;13.16;81.59
71948;BME280;59820;55.076;38.766;2022-08-01T01:48:27;100144.41;;;13.17;81.93
71948;BME280;59820;55.076;38.766;2022-08-01T01:50:54;100131.81;;;13.06;81.59
71948;BME280;59820;55.076;38.766;2022-08-01T01:53:22;100135.72;;;13.15;81.42
71948;BME280;59820;55.076;38.766;2022-08-01T01:55:52;100143.56;;;13.16;81.30
71948;BME280;59820;55.076;38.766;2022-08-01T01:58:20;100144.41;;;13.17;81.19
71948;BME280;59820;55.076;38.766;2022-08-01T02:00:48;100146.22;;;13.16;81.49
71948;BME280;59820;55.076;38.766;2022-08-01T02:03:16;100138.41;;;13.13;81.75
71948;BME280;59820;55.076;38.766;2022-08-01T02:05:42;100125.28;;;13.12;81.72
71948;BME280;59820;55.076;38.766;2022-08-01T02:08:10;100133.59;;;13.20;81.35
71948;BME280;59820;55.076;38.766;2022-08-01T02:10:39;100136.94;;;13.23;81.37
71948;BME280;59820;55.076;38.766;2022-08-01T02:13:06;100140.31;;;13.26;81.29
71948;BME280;59820;55.076;38.766;2022-08-01T02:15:36;100146.28;;;13.29;81.32
71948;BME280;59820;55.076;38.766;2022-08-01T02:18:06;100138.34;;;13.29;80.96
71948;BME280;59820;55.076;38.766;2022-08-01T02:20:34;100136.47;;;13.31;80.92
71948;BME280;59820;55.076;38.766;2022-08-01T02:23:08;100142.63;;;13.32;80.53
71948;BME280;59820;55.076;38.766;2022-08-01T02:25:49;100144.31;;;13.33;80.35
71948;BME280;59820;55.076;38.766;2022-08-01T02:28:25;100135.41;;;13.34;80.38
71948;BME280;59820;55.076;38.766;2022-08-01T02:31:01;100143.22;;;13.37;80.33
71948;BME280;59820;55.076;38.766;2022-08-01T02:33:37;100134.88;;;13.43;79.84
71948;BME280;59820;55.076;38.766;2022-08-01T02:36:04;100136.28;;;13.49;79.29
71948;BME280;59820;55.076;38.766;2022-08-01T02:38:36;100139.31;;;13.57;79.44
71948;BME280;59820;55.076;38.766;2022-08-01T02:41:09;100139.19;;;13.58;78.94
71948;BME280;59820;55.076;38.766;2022-08-01T02:43:42;100137.53;;;13.57;79.10
71948;BME280;59820;55.076;38.766;2022-08-01T02:46:12;100147.47;;;13.68;78.85
71948;BME280;59820;55.076;38.766;2022-08-01T02:48:43;100149.03;;;13.71;78.80
71948;BME280;59820;55.076;38.766;2022-08-01T02:51:12;100140.81;;;13.76;78.68
71948;BME280;59820;55.076;38.766;2022-08-01T02:53:40;100145.72;;;13.82;78.30
71948;BME280;59820;55.076;38.766;2022-08-01T02:56:08;100144.56;;;13.86;77.82
71948;BME280;59820;55.076;38.766;2022-08-01T02:58:36;100140.22;;;13.85;77.69
71948;BME280;59820;55.076;38.766;2022-08-01T03:01:04;100143.97;;;13.95;78.00
71948;BME280;59820;55.076;38.766;2022-08-01T03:03:33;100143.69;;;14.00;78.09
71948;BME280;59820;55.076;38.766;2022-08-01T03:06:00;100132.44;;;13.96;77.56
71948;BME280;59820;55.076;38.766;2022-08-01T03:08:29;100153.50;;;14.12;77.68
71948;BME280;59820;55.076;38.766;2022-08-01T03:10:57;100145.88;;;14.20;77.47
71948;BME280;59820;55.076;38.766;2022-08-01T03:13:25;100129.34;;;14.17;77.39
71948;BME280;59820;55.076;38.766;2022-08-01T03:15:55;100135.72;;;14.27;76.66
71948;BME280;59820;55.076;38.766;2022-08-01T03:18:24;100151.41;;;14.45;76.39
71948;BME280;59820;55.076;38.766;2022-08-01T03:20:52;100155.25;;;14.53;75.93
71948;BME280;59820;55.076;38.766;2022-08-01T03:23:21;100119.31;;;14.48;76.25
71948;BME280;59820;55.076;38.766;2022-08-01T03:25:49;100155.88;;;14.71;75.39
71948;BME280;59820;55.076;38.766;2022-08-01T03:28:18;100156.94;;;14.82;75.38
71948;BME280;59820;55.076;38.766;2022-08-01T03:30:48;100154.72;;;14.88;74.72
71948;BME280;59820;55.076;38.766;2022-08-01T03:33:15;100151.63;;;14.95;74.18
71948;BME280;59820;55.076;38.766;2022-08-01T03:35:49;100150.91;;;15.05;73.74
71948;BME280;59820;55.076;38.766;2022-08-01T03:38:22;100150.28;;;15.15;73.95
71948;BME280;59820;55.076;38.766;2022-08-01T03:41:13;100155.38;;;15.31;73.24
71948;BME280;59820;55.076;38.766;2022-08-01T03:43:47;100147.06;;;15.35;72.27
71948;BME280;59820;55.076;38.766;2022-08-01T03:46:26;100147.59;;;15.53;72.17
71948;BME280;59820;55.076;38.766;2022-08-01T03:48:58;100137.34;;;15.60;71.66
71948;BME280;59820;55.076;38.766;2022-08-01T03:51:27;100137.66;;;15.81;70.77
71948;BME280;59820;55.076;38.766;2022-08-01T03:53:55;100125.81;;;15.85;69.51
71948;BME280;59820;55.076;38.766;2022-08-01T03:56:22;100144.72;;;16.06;68.88
71948;BME280;59820;55.076;38.766;2022-08-01T03:58:50;100128.41;;;16.11;67.86
71948;BME280;59820;55.076;38.766;2022-08-01T04:01:17;100135.16;;;16.28;67.59
71948;BME280;59820;55.076;38.766;2022-08-01T04:03:46;100151.91;;;16.41;67.14
71948;BME280;59820;55.076;38.766;2022-08-01T04:06:13;100148.78;;;16.48;66.02
71948;BME280;59820;55.076;38.766;2022-08-01T04:08:43;100141.31;;;16.53;66.16
71948;BME280;59820;55.076;38.766;2022-08-01T04:11:24;100144.25;;;16.61;65.50
71948;BME280;59820;55.076;38.766;2022-08-01T04:13:55;100140.16;;;16.68;64.72
71948;BME280;59820;55.076;38.766;2022-08-01T04:16:23;100137.25;;;16.71;64.53
71948;BME280;59820;55.076;38.766;2022-08-01T04:18:55;100138.84;;;16.85;64.52
71948;BME280;59820;55.076;38.766;2022-08-01T04:21:25;100149.09;;;17.03;64.22
71948;BME280;59820;55.076;38.766;2022-08-01T04:24:02;100152.03;;;17.11;63.90
71948;BME280;59820;55.076;38.766;2022-08-01T04:26:32;100157.75;;;17.18;63.51
71948;BME280;59820;55.076;38.766;2022-08-01T04:29:02;100148.53;;;17.22;63.21
71948;BME280;59820;55.076;38.766;2022-08-01T04:31:31;100148.66;;;17.32;62.71
71948;BME280;59820;55.076;38.766;2022-08-01T04:33:59;100150.47;;;17.42;61.60
71948;BME280;59820;55.076;38.766;2022-08-01T04:36:28;100149.63;;;17.53;62.03
71948;BME280;59820;55.076;38.766;2022-08-01T04:38:58;100150.72;;;17.62;61.18
71948;BME280;59820;55.076;38.766;2022-08-01T04:41:26;100150.69;;;17.73;60.93
71948;BME280;59820;55.076;38.766;2022-08-01T04:43:56;100149.72;;;17.74;60.68
71948;BME280;59820;55.076;38.766;2022-08-01T04:46:25;100142.09;;;17.81;60.54
71948;BME280;59820;55.076;38.766;2022-08-01T04:48:59;100152.66;;;17.94;60.46
71948;BME280;59820;55.076;38.766;2022-08-01T04:51:27;100157.13;;;18.05;60.34
71948;BME280;59820;55.076;38.766;2022-08-01T04:53:55;100165.97;;;18.17;59.29
71948;BME280;59820;55.076;38.766;2022-08-01T04:56:22;100159.53;;;18.19;59.10
71948;BME280;59820;55.076;38.766;2022-08-01T04:58:48;100163.13;;;18.29;59.06
71948;BME280;59820;55.076;38.766;2022-08-01T05:01:37;100179.97;;;18.41;58.87
71948;BME280;59820;55.076;38.766;2022-08-01T05:04:03;100154.63;;;18.36;58.78
71948;BME280;59820;55.076;38.766;2022-08-01T05:06:30;100168.13;;;18.55;57.81
71948;BME280;59820;55.076;38.766;2022-08-01T05:08:55;100160.13;;;18.55;57.53
71948;BME280;59820;55.076;38.766;2022-08-01T05:11:21;100172.19;;;18.71;57.52
71948;BME280;59820;55.076;38.766;2022-08-01T05:13:48;100153.75;;;18.68;57.29
71948;BME280;59820;55.076;38.766;2022-08-01T05:16:14;100172.03;;;18.84;56.89
71948;BME280;59820;55.076;38.766;2022-08-01T05:18:40;100160.13;;;18.88;57.24
71948;BME280;59820;55.076;38.766;2022-08-01T05:21:06;100167.88;;;18.91;56.98
71948;BME280;59820;55.076;38.766;2022-08-01T05:23:32;100165.78;;;18.94;56.93
71948;BME280;59820;55.076;38.766;2022-08-01T05:25:58;100172.09;;;19.14;56.73
71948;BME280;59820;55.076;38.766;2022-08-01T05:28:25;100170.44;;;19.23;56.83
71948;BME280;59820;55.076;38.766;2022-08-01T05:30:51;100148.88;;;19.15;56.70
71948;BME280;59820;55.076;38.766;2022-08-01T05:33:23;100159.84;;;19.33;56.63
71948;BME280;59820;55.076;38.766;2022-08-01T05:35:48;100168.16;;;19.40;56.88
71948;BME280;59820;55.076;38.766;2022-08-01T05:38:15;100157.34;;;19.41;56.43
71948;BME280;59820;55.076;38.766;2022-08-01T05:40:41;100165.81;;;19.56;56.49
71948;BME280;59820;55.076;38.766;2022-08-01T05:43:07;100169.13;;;19.70;56.21
71948;BME280;59820;55.076;38.766;2022-08-01T05:45:33;100169.91;;;19.81;55.97
71948;BME280;59820;55.076;38.766;2022-08-01T05:48:00;100164.44;;;19.93;55.42
71948;BME280;59820;55.076;38.766;2022-08-01T05:50:25;100172.34;;;20.04;54.83
71948;BME280;59820;55.076;38.766;2022-08-01T05:52:54;100160.81;;;20.13;54.05
71948;BME280;59820;55.076;38.766;2022-08-01T05:55:20;100154.34;;;20.16;53.76
71948;BME280;59820;55.076;38.766;2022-08-01T05:57:46;100159.41;;;20.29;53.20
71948;BME280;59820;55.076;38.766;2022-08-01T06:00:13;100157.47;;;20.41;52.90
71948;BME280;59820;55.076;38.766;2022-08-01T06:02:41;100148.59;;;20.40;52.89
71948;BME280;59820;55.076;38.766;2022-08-01T06:05:08;100158.59;;;20.58;51.86
71948;BME280;59820;55.076;38.766;2022-08-01T06:07:38;100152.25;;;20.68;52.29
71948;BME280;59820;55.076;38.766;2022-08-01T06:10:08;100150.59;;;20.77;51.34
71948;BME280;59820;55.076;38.766;2022-08-01T06:12:35;100162.56;;;20.93;50.47
71948;BME280;59820;55.076;38.766;2022-08-01T06:15:03;100157.31;;;21.01;50.92
71948;BME280;59820;55.076;38.766;2022-08-01T06:17:29;100161.81;;;21.10;50.17
71948;BME280;59820;55.076;38.766;2022-08-01T06:19:55;100154.88;;;21.17;50.47
71948;BME280;59820;55.076;38.766;2022-08-01T06:22:21;100153.59;;;21.22;51.04
71948;BME280;59820;55.076;38.766;2022-08-01T06:24:47;100162.19;;;21.35;50.19
71948;BME280;59820;55.076;38.766;2022-08-01T06:27:13;100160.91;;;21.39;49.50
71948;BME280;59820;55.076;38.766;2022-08-01T06:29:39;100162.66;;;21.48;49.61
71948;BME280;59820;55.076;38.766;2022-08-01T06:32:05;100158.00;;;21.60;49.03
71948;BME280;59820;55.076;38.766;2022-08-01T06:34:32;100152.72;;;21.68;48.96
71948;BME280;59820;55.076;38.766;2022-08-01T06:36:58;100148.03;;;21.71;48.14
71948;BME280;59820;55.076;38.766;2022-08-01T06:39:24;100157.94;;;21.98;48.03
71948;BME280;59820;55.076;38.766;2022-08-01T06:41:50;100155.75;;;22.11;48.33
71948;BME280;59820;55.076;38.766;2022-08-01T06:44:16;100151.00;;;22.23;47.43
71948;BME280;59820;55.076;38.766;2022-08-01T06:46:44;100155.44;;;22.32;46.91
71948;BME280;59820;55.076;38.766;2022-08-01T06:49:11;100162.50;;;22.33;47.16
71948;BME280;59820;55.076;38.766;2022-08-01T06:51:37;100163.50;;;22.42;46.53
71948;BME280;59820;55.076;38.766;2022-08-01T06:54:03;100160.88;;;22.50;46.73
71948;BME280;59820;55.076;38.766;2022-08-01T06:56:29;100171.78;;;22.67;47.05
71948;BME280;59820;55.076;38.766;2022-08-01T06:58:55;100166.09;;;22.70;45.97
71948;BME280;59820;55.076;38.766;2022-08-01T07:01:29;100159.91;;;22.78;45.36
71948;BME280;59820;55.076;38.766;2022-08-01T07:03:55;100159.06;;;22.77;45.22
71948;BME280;59820;55.076;38.766;2022-08-01T07:06:23;100162.38;;;22.89;44.91
71948;BME280;59820;55.076;38.766;2022-08-01T07:08:49;100167.00;;;23.05;43.78
71948;BME280;59820;55.076;38.766;2022-08-01T07:11:15;100159.16;;;23.12;42.66
71948;BME280;59820;55.076;38.766;2022-08-01T07:13:41;100163.09;;;23.17;43.02
71948;BME280;59820;55.076;38.766;2022-08-01T07:16:07;100162.13;;;23.27;42.51
71948;BME280;59820;55.076;38.766;2022-08-01T07:18:33;100170.47;;;23.42;43.73
71948;BME280;59820;55.076;38.766;2022-08-01T07:20:59;100163.94;;;23.44;43.27
71948;BME280;59820;55.076;38.766;2022-08-01T07:23:25;100173.75;;;23.53;42.38
71948;BME280;59820;55.076;38.766;2022-08-01T07:25:51;100166.34;;;23.55;42.19
71948;BME280;59820;55.076;38.766;2022-08-01T07:28:18;100170.59;;;23.66;42.08
71948;BME280;59820;55.076;38.766;2022-08-01T07:30:44;100165.25;;;23.75;41.77
71948;BME280;59820;55.076;38.766;2022-08-01T07:33:10;100150.78;;;23.76;41.21
71948;BME280;59820;55.076;38.766;2022-08-01T07:35:36;100158.56;;;23.87;41.62
71948;BME280;59820;55.076;38.766;2022-08-01T07:38:05;100166.69;;;23.95;40.07
71948;BME280;59820;55.076;38.766;2022-08-01T07:40:31;100165.88;;;24.03;40.12
71948;BME280;59820;55.076;38.766;2022-08-01T07:42:57;100137.88;;;23.96;40.46
71948;BME280;59820;55.076;38.766;2022-08-01T07:45:23;100168.75;;;24.18;40.61
71948;BME280;59820;55.076;38.766;2022-08-01T07:47:49;100163.06;;;24.21;40.73
71948;BME280;59820;55.076;38.766;2022-08-01T07:50:16;100174.50;;;24.23;40.26
71948;BME280;59820;55.076;38.766;2022-08-01T07:52:42;100164.41;;;24.25;39.44
71948;BME280;59820;55.076;38.766;2022-08-01T07:55:09;100150.22;;;24.07;39.18
71948;BME280;59820;55.076;38.766;2022-08-01T07:57:36;100164.59;;;24.24;40.20
71948;BME280;59820;55.076;38.766;2022-08-01T08:00:04;100154.31;;;24.35;40.01
71948;BME280;59820;55.076;38.766;2022-08-01T08:02:31;100144.19;;;24.29;38.07
71948;BME280;59820;55.076;38.766;2022-08-01T08:04:58;100163.59;;;24.41;38.56
71948;BME280;59820;55.076;38.766;2022-08-01T08:07:24;100158.88;;;24.35;38.88
71948;BME280;59820;55.076;38.766;2022-08-01T08:09:50;100146.38;;;24.34;38.99
71948;BME280;59820;55.076;38.766;2022-08-01T08:12:16;100141.84;;;24.43;38.93
71948;BME280;59820;55.076;38.766;2022-08-01T08:14:42;100146.75;;;24.47;39.20
71948;BME280;59820;55.076;38.766;2022-08-01T08:17:08;100157.88;;;24.61;37.87
71948;BME280;59820;55.076;38.766;2022-08-01T08:19:34;100160.75;;;24.67;37.59
71948;BME280;59820;55.076;38.766;2022-08-01T08:22:03;100153.53;;;24.76;37.77
71948;BME280;59820;55.076;38.766;2022-08-01T08:24:29;100153.69;;;24.83;37.80
71948;BME280;59820;55.076;38.766;2022-08-01T08:26:57;100147.63;;;24.72;37.56
71948;BME280;59820;55.076;38.766;2022-08-01T08:29:23;100136.44;;;24.59;36.45
71948;BME280;59820;55.076;38.766;2022-08-01T08:31:52;100154.50;;;24.59;35.61
71948;BME280;59820;55.076;38.766;2022-08-01T08:34:19;100155.66;;;24.48;35.47
71948;BME280;59820;55.076;38.766;2022-08-01T08:36:45;100151.28;;;24.47;36.52
71948;BME280;59820;55.076;38.766;2022-08-01T08:39:11;100135.25;;;24.37;36.05
71948;BME280;59820;55.076;38.766;2022-08-01T08:41:37;100145.38;;;24.27;36.91
71948;BME280;59820;55.076;38.766;2022-08-01T08:44:05;100129.19;;;24.18;36.25
71948;BME280;59820;55.076;38.766;2022-08-01T08:46:33;100137.97;;;24.45;36.69
71948;BME280;59820;55.076;38.766;2022-08-01T08:49:01;100133.91;;;24.58;36.27
71948;BME280;59820;55.076;38.766;2022-08-01T08:51:30;100129.91;;;24.70;36.89
71948;BME280;59820;55.076;38.766;2022-08-01T08:53:57;100118.44;;;24.76;36.49
71948;BME280;59820;55.076;38.766;2022-08-01T08:56:24;100124.84;;;24.83;35.03
71948;BME280;59820;55.076;38.766;2022-08-01T08:58:51;100128.69;;;25.05;34.69
71948;BME280;59820;55.076;38.766;2022-08-01T09:01:17;100133.53;;;25.27;35.04
71948;BME280;59820;55.076;38.766;2022-08-01T09:03:44;100131.31;;;25.38;34.98
71948;BME280;59820;55.076;38.766;2022-08-01T09:06:11;100126.00;;;25.62;34.68
71948;BME280;59820;55.076;38.766;2022-08-01T09:08:37;100110.75;;;25.69;33.73
71948;BME280;59820;55.076;38.766;2022-08-01T09:11:03;100133.31;;;25.93;34.11
71948;BME280;59820;55.076;38.766;2022-08-01T09:13:29;100116.75;;;25.87;32.34
71948;BME280;59820;55.076;38.766;2022-08-01T09:15:56;100123.31;;;25.93;33.13
71948;BME280;59820;55.076;38.766;2022-08-01T09:18:33;100124.22;;;26.17;34.31
71948;BME280;59820;55.076;38.766;2022-08-01T09:23:50;100102.56;;;26.17;32.00
71948;BME280;59820;55.076;38.766;2022-08-01T09:26:28;100119.00;;;26.38;31.72
71948;BME280;59820;55.076;38.766;2022-08-01T09:28:55;100118.22;;;26.30;31.62
71948;BME280;59820;55.076;38.766;2022-08-01T09:31:21;100120.19;;;26.36;30.58
71948;BME280;59820;55.076;38.766;2022-08-01T09:33:56;100115.13;;;26.56;30.87
71948;BME280;59820;55.076;38.766;2022-08-01T09:36:24;100124.34;;;26.70;31.64
71948;BME280;59820;55.076;38.766;2022-08-01T09:38:52;100120.75;;;26.92;30.35
71948;BME280;59820;55.076;38.766;2022-08-01T09:41:28;100121.88;;;27.13;31.11
71948;BME280;59820;55.076;38.766;2022-08-01T09:43:57;100115.44;;;27.14;30.34
71948;BME280;59820;55.076;38.766;2022-08-01T09:46:24;100095.56;;;27.07;30.19
71948;BME280;59820;55.076;38.766;2022-08-01T09:49:01;100118.06;;;27.22;30.70
71948;BME280;59820;55.076;38.766;2022-08-01T09:51:37;100107.69;;;27.26;30.12
71948;BME280;59820;55.076;38.766;2022-08-01T09:54:06;100112.53;;;27.31;30.68
71948;BME280;59820;55.076;38.766;2022-08-01T09:56:37;100110.59;;;27.24;29.73
71948;BME280;59820;55.076;38.766;2022-08-01T09:59:03;100082.00;;;27.22;29.09
71948;BME280;59820;55.076;38.766;2022-08-01T10:01:43;100106.00;;;27.25;30.17
71948;BME280;59820;55.076;38.766;2022-08-01T10:04:13;100094.41;;;27.31;28.13
71948;BME280;59820;55.076;38.766;2022-08-01T10:06:42;100090.22;;;27.14;27.32
71948;BME280;59820;55.076;38.766;2022-08-01T10:09:13;100095.56;;;27.07;27.11
71948;BME280;59820;55.076;38.766;2022-08-01T10:11:42;100078.63;;;26.90;26.89
71948;BME280;59820;55.076;38.766;2022-08-01T10:17:25;100074.53;;;26.79;28.44
71948;BME280;59820;55.076;38.766;2022-08-01T10:19:52;100087.72;;;26.97;28.52
71948;BME280;59820;55.076;38.766;2022-08-01T10:22:23;100089.94;;;27.08;28.47
71948;BME280;59820;55.076;38.766;2022-08-01T10:24:54;100093.19;;;27.19;27.76
71948;BME280;59820;55.076;38.766;2022-08-01T10:27:21;100088.84;;;27.33;27.81
71948;BME280;59820;55.076;38.766;2022-08-01T10:30:01;100084.78;;;27.58;26.44
71948;BME280;59820;55.076;38.766;2022-08-01T10:32:34;100083.66;;;27.68;27.38
71948;BME280;59820;55.076;38.766;2022-08-01T10:35:02;100065.03;;;27.80;24.93
71948;BME280;59820;55.076;38.766;2022-08-01T10:37:29;100070.00;;;27.98;28.00
71948;BME280;59820;55.076;38.766;2022-08-01T10:39:58;100075.09;;;28.22;25.16
71948;BME280;59820;55.076;38.766;2022-08-01T10:42:25;100072.94;;;28.18;23.65
71948;BME280;59820;55.076;38.766;2022-08-01T10:44:51;100075.41;;;28.13;23.46
71948;BME280;59820;55.076;38.766;2022-08-01T10:47:23;100064.72;;;27.89;24.69
71948;BME280;59820;55.076;38.766;2022-08-01T10:50:01;100073.88;;;27.88;26.80
71948;BME280;59820;55.076;38.766;2022-08-01T10:52:33;100071.53;;;28.00;25.17
71948;BME280;59820;55.076;38.766;2022-08-01T10:55:07;100072.88;;;28.33;27.53
71948;BME280;59820;55.076;38.766;2022-08-01T10:57:44;100070.69;;;28.43;25.81
71948;BME280;59820;55.076;38.766;2022-08-01T11:00:20;100064.38;;;28.42;27.13
71948;BME280;59820;55.076;38.766;2022-08-01T11:02:59;100062.78;;;28.48;25.75
71948;BME280;59820;55.076;38.766;2022-08-01T11:05:28;100064.09;;;28.59;26.95
71948;BME280;59820;55.076;38.766;2022-08-01T11:07:58;100055.47;;;28.70;26.09
71948;BME280;59820;55.076;38.766;2022-08-01T11:12:59;100060.03;;;28.98;25.26
71948;BME280;59820;55.076;38.766;2022-08-01T11:15:28;100062.91;;;29.25;26.43
71948;BME280;59820;55.076;38.766;2022-08-01T11:17:55;100055.50;;;29.54;25.00
71948;BME280;59820;55.076;38.766;2022-08-01T11:20:24;100068.22;;;30.02;25.53
71948;BME280;59820;55.076;38.766;2022-08-01T11:31:45;100061.78;;;30.83;22.39
71948;BME280;59820;55.076;38.766;2022-08-01T11:39:33;100049.28;;;31.34;22.18
71948;BME280;59820;55.076;38.766;2022-08-01T11:41:36;100054.66;;;30.82;21.89
71948;BME280;59820;55.076;38.766;2022-08-01T11:44:08;100051.28;;;31.07;23.28
71948;BME280;59820;55.076;38.766;2022-08-01T11:49:33;100049.78;;;29.90;25.02
71948;BME280;59820;55.076;38.766;2022-08-01T11:54:34;100045.84;;;30.26;23.69
71948;BME280;59820;55.076;38.766;2022-08-01T11:57:05;100035.50;;;29.75;23.83
71948;BME280;59820;55.076;38.766;2022-08-01T11:59:48;100038.38;;;29.60;23.58
71948;BME280;59820;55.076;38.766;2022-08-01T12:02:29;100021.69;;;29.70;23.34
71948;BME280;59820;55.076;38.766;2022-08-01T12:04:59;100024.28;;;30.65;22.16
71948;BME280;59820;55.076;38.766;2022-08-01T12:07:28;100026.97;;;30.78;21.94
71948;BME280;59820;55.076;38.766;2022-08-01T12:12:31;100031.34;;;31.00;21.11
71948;BME280;59820;55.076;38.766;2022-08-01T12:14:59;100024.09;;;31.39;21.64
71948;BME280;59820;55.076;38.766;2022-08-01T12:17:37;100026.75;;;31.07;20.80
71948;BME280;59820;55.076;38.766;2022-08-01T12:20:08;100017.09;;;31.63;21.51
71948;BME280;59820;55.076;38.766;2022-08-01T12:22:36;100018.63;;;32.16;21.21
71948;BME280;59820;55.076;38.766;2022-08-01T12:25:20;100022.44;;;32.08;20.85
71948;BME280;59820;55.076;38.766;2022-08-01T12:27:47;100025.81;;;32.36;21.19
71948;BME280;59820;55.076;38.766;2022-08-01T12:30:16;100010.94;;;32.32;21.13
71948;BME280;59820;55.076;38.766;2022-08-01T12:32:47;100015.59;;;31.02;22.82
71948;BME280;59820;55.076;38.766;2022-08-01T12:35:16;100011.91;;;30.16;24.00
71948;BME280;59820;55.076;38.766;2022-08-01T12:37:47;100011.72;;;30.37;22.79
71948;BME280;59820;55.076;38.766;2022-08-01T12:40:25;100012.50;;;31.43;22.45
71948;BME280;59820;55.076;38.766;2022-08-01T12:42:57;100006.72;;;32.36;22.26
71948;BME280;59820;55.076;38.766;2022-08-01T12:45:29;100017.09;;;32.71;21.94
71948;BME280;59820;55.076;38.766;2022-08-01T12:47:57;100013.31;;;32.90;21.86
71948;BME280;59820;55.076;38.766;2022-08-01T12:50:27;99999.34;;;32.11;23.60
71948;BME280;59820;55.076;38.766;2022-08-01T12:52:54;100004.41;;;31.37;23.70
71948;BME280;59820;55.076;38.766;2022-08-01T12:55:25;100010.84;;;30.84;24.45
71948;BME280;59820;55.076;38.766;2022-08-01T12:58:12;100015.69;;;30.28;24.68
71948;BME280;59820;55.076;38.766;2022-08-01T13:00:39;100012.06;;;31.08;24.17
71948;BME280;59820;55.076;38.766;2022-08-01T13:03:19;100005.38;;;32.13;21.32
71948;BME280;59820;55.076;38.766;2022-08-01T13:05:57;99989.41;;;32.86;19.83
71948;BME280;59820;55.076;38.766;2022-08-01T13:08:29;99991.34;;;33.53;19.88
71948;BME280;59820;55.076;38.766;2022-08-01T13:11:05;99996.97;;;34.24;19.09
71948;BME280;59820;55.076;38.766;2022-08-01T13:17:52;99995.31;;;34.94;18.58
71948;BME280;59820;55.076;38.766;2022-08-01T13:20:26;99993.19;;;35.25;19.00
71948;BME280;59820;55.076;38.766;2022-08-01T13:22:53;100002.25;;;35.37;18.25
71948;BME280;59820;55.076;38.766;2022-08-01T13:25:19;100002.34;;;35.71;18.48
71948;BME280;59820;55.076;38.766;2022-08-01T13:28:14;99998.06;;;35.63;17.54
71948;BME280;59820;55.076;38.766;2022-08-01T13:31:01;99994.53;;;35.80;17.57
71948;BME280;59820;55.076;38.766;2022-08-01T13:33:40;99996.22;;;35.98;18.70
71948;BME280;59820;55.076;38.766;2022-08-01T13:36:06;100000.97;;;36.20;18.19
71948;BME280;59820;55.076;38.766;2022-08-01T13:38:32;100002.66;;;36.21;18.42